createdAt,value
2019-01-21T00:00:28.818Z,1.79
2019-01-21T00:01:28.867Z,1.83
2019-01-21T00:02:28.789Z,1.8
2019-01-21T00:03:28.765Z,1.8
2019-01-21T00:04:28.751Z,1.77
2019-01-21T00:05:28.732Z,1.72
2019-01-21T00:06:28.721Z,1.68
2019-01-21T00:07:30.448Z,1.59
2019-01-21T00:08:28.687Z,1.48
2019-01-21T00:09:28.672Z,1.37
2019-01-21T00:10:28.654Z,1.45
2019-01-21T00:11:28.636Z,1.37
2019-01-21T00:12:28.620Z,1.34
2019-01-21T00:13:28.607Z,1.36
2019-01-21T00:14:28.586Z,1.33
2019-01-21T00:15:28.563Z,1.32
2019-01-21T00:16:28.552Z,1.4
2019-01-21T00:17:28.295Z,1.44
2019-01-21T00:18:28.518Z,1.37
2019-01-21T00:19:28.519Z,1.44
2019-01-21T00:20:28.484Z,1.34
2019-01-21T00:21:28.464Z,1.41
2019-01-21T00:22:28.450Z,1.41
2019-01-21T00:23:28.430Z,1.4
2019-01-21T00:24:28.410Z,1.42
2019-01-21T00:25:28.399Z,1.27
2019-01-21T00:26:28.381Z,1.2
2019-01-21T00:27:28.362Z,1.14
2019-01-21T00:28:28.352Z,1.2
2019-01-21T00:29:28.330Z,1.12
2019-01-21T00:30:28.314Z,1.14
2019-01-21T00:31:28.299Z,1.18
2019-01-21T00:32:28.276Z,1.24
2019-01-21T00:33:28.261Z,1.36
2019-01-21T00:34:28.256Z,1.4
2019-01-21T00:35:28.232Z,1.42
2019-01-21T00:36:28.212Z,1.42
2019-01-21T00:37:28.195Z,1.36
2019-01-21T00:38:28.177Z,1.3
2019-01-21T00:39:28.162Z,1.36
2019-01-21T00:40:28.144Z,1.36
2019-01-21T00:41:28.127Z,1.4
2019-01-21T00:42:28.108Z,1.37
2019-01-21T00:43:28.089Z,1.45
2019-01-21T00:44:28.075Z,1.51
2019-01-21T00:45:28.056Z,1.58
2019-01-21T00:46:28.040Z,1.63
2019-01-21T00:47:34.790Z,1.55
2019-01-21T00:48:28.006Z,1.62
2019-01-21T00:49:27.990Z,1.58
2019-01-21T00:50:27.979Z,1.6
2019-01-21T00:51:27.959Z,1.73
2019-01-21T00:52:27.941Z,1.8
2019-01-21T00:53:27.921Z,1.79
2019-01-21T00:54:27.913Z,1.8
2019-01-21T00:55:27.890Z,1.86
2019-01-21T00:56:27.871Z,1.81
2019-01-21T00:57:27.855Z,1.8
2019-01-21T00:58:27.843Z,1.81
2019-01-21T00:59:27.820Z,1.81
2019-01-21T01:00:27.808Z,1.69
2019-01-21T01:01:27.789Z,1.76
2019-01-21T01:02:27.772Z,1.77
2019-01-21T01:03:27.755Z,1.7
2019-01-21T01:04:27.738Z,1.69
2019-01-21T01:05:27.720Z,1.6
2019-01-21T01:06:27.703Z,1.68
2019-01-21T01:07:27.689Z,1.66
2019-01-21T01:08:27.668Z,1.66
2019-01-21T01:09:27.651Z,1.7
2019-01-21T01:10:27.637Z,1.77
2019-01-21T01:11:27.618Z,1.73
2019-01-21T01:12:27.601Z,1.7
2019-01-21T01:13:27.586Z,1.76
2019-01-21T01:14:27.568Z,1.72
2019-01-21T01:15:27.552Z,1.79
2019-01-21T01:16:27.552Z,1.79
2019-01-21T01:17:27.518Z,1.81
2019-01-21T01:18:27.499Z,1.79
2019-01-21T01:19:27.482Z,1.83
2019-01-21T01:20:27.468Z,1.81
2019-01-21T01:21:27.449Z,1.81
2019-01-21T01:22:27.436Z,1.79
2019-01-21T01:23:27.415Z,1.83
2019-01-21T01:24:27.454Z,1.81
2019-01-21T01:25:27.386Z,1.88
2019-01-21T01:26:27.366Z,1.83
2019-01-21T01:27:27.351Z,1.84
2019-01-21T01:28:27.332Z,1.8
2019-01-21T01:29:27.324Z,1.79
2019-01-21T01:30:27.301Z,1.81
2019-01-21T01:31:27.281Z,1.84
2019-01-21T01:32:27.273Z,1.8
2019-01-21T01:33:27.249Z,1.81
2019-01-21T01:34:27.232Z,1.81
2019-01-21T01:35:27.216Z,1.8
2019-01-21T01:36:27.197Z,1.8
2019-01-21T01:37:27.187Z,1.81
2019-01-21T01:38:27.167Z,1.73
2019-01-21T01:39:27.156Z,1.68
2019-01-21T01:40:27.130Z,1.66
2019-01-21T01:41:27.122Z,1.58
2019-01-21T01:42:27.121Z,1.51
2019-01-21T01:43:27.102Z,1.4
2019-01-21T01:44:27.075Z,1.37
2019-01-21T01:45:27.619Z,1.44
2019-01-21T01:46:27.046Z,1.45
2019-01-21T01:47:27.024Z,1.42
2019-01-21T01:48:27.009Z,1.41
2019-01-21T01:49:26.996Z,1.42
2019-01-21T01:50:26.973Z,1.51
2019-01-21T01:51:26.967Z,1.48
2019-01-21T01:52:26.943Z,1.47
2019-01-21T01:53:26.927Z,1.54
2019-01-21T01:54:27.177Z,1.58
2019-01-21T01:55:26.894Z,1.65
2019-01-21T01:56:26.873Z,1.58
2019-01-21T01:57:26.862Z,1.58
2019-01-21T01:58:26.604Z,1.68
2019-01-21T01:59:26.829Z,1.72
2019-01-21T02:00:26.806Z,1.69
2019-01-21T02:01:26.783Z,1.7
2019-01-21T02:02:27.183Z,1.7
2019-01-21T02:03:26.756Z,1.7
2019-01-21T02:04:26.742Z,1.8
2019-01-21T02:05:26.722Z,1.7
2019-01-21T02:06:26.706Z,1.79
2019-01-21T02:07:26.685Z,1.72
2019-01-21T02:08:26.676Z,1.7
2019-01-21T02:09:26.652Z,1.72
2019-01-21T02:10:26.642Z,1.81
2019-01-21T02:11:27.016Z,1.79
2019-01-21T02:12:26.597Z,1.8
2019-01-21T02:13:26.587Z,1.7
2019-01-21T02:14:26.572Z,1.55
2019-01-21T02:15:26.549Z,1.63
2019-01-21T02:16:26.538Z,1.6
2019-01-21T02:17:26.515Z,1.6
2019-01-21T02:18:26.503Z,1.68
2019-01-21T02:19:26.930Z,1.69
2019-01-21T02:20:26.468Z,1.8
2019-01-21T02:21:26.449Z,1.79
2019-01-21T02:22:26.433Z,1.69
2019-01-21T02:23:26.413Z,1.68
2019-01-21T02:24:26.399Z,1.79
2019-01-21T02:25:26.378Z,1.79
2019-01-21T02:26:26.427Z,1.77
2019-01-21T02:27:26.351Z,1.73
2019-01-21T02:28:26.742Z,1.76
2019-01-21T02:29:26.313Z,1.8
2019-01-21T02:30:26.312Z,1.7
2019-01-21T02:31:26.285Z,1.6
2019-01-21T02:32:26.259Z,1.62
2019-01-21T02:33:26.251Z,1.63
2019-01-21T02:34:26.239Z,1.63
2019-01-21T02:35:26.220Z,1.59
2019-01-21T02:36:26.288Z,1.66
2019-01-21T02:37:26.184Z,1.68
2019-01-21T02:38:26.160Z,1.72
2019-01-21T02:39:26.138Z,1.73
2019-01-21T02:40:26.131Z,1.73
2019-01-21T02:41:26.113Z,1.76
2019-01-21T02:42:26.091Z,1.8
2019-01-21T02:43:26.081Z,1.76
2019-01-21T02:44:26.063Z,1.8
2019-01-21T02:45:26.544Z,1.77
2019-01-21T02:46:26.040Z,1.76
2019-01-21T02:47:26.009Z,1.73
2019-01-21T02:48:25.993Z,1.8
2019-01-21T02:49:25.979Z,1.81
2019-01-21T02:50:25.967Z,1.91
2019-01-21T02:51:25.953Z,1.8
2019-01-21T02:52:25.920Z,1.93
2019-01-21T02:53:26.143Z,1.88
2019-01-21T02:54:25.892Z,1.88
2019-01-21T02:55:25.874Z,1.9
2019-01-21T02:56:25.857Z,1.88
2019-01-21T02:57:25.849Z,1.88
2019-01-21T02:58:25.824Z,1.93
2019-01-21T02:59:25.812Z,1.95
2019-01-21T03:00:25.796Z,1.77
2019-01-21T03:01:25.770Z,1.84
2019-01-21T03:02:26.339Z,1.72
2019-01-21T03:03:25.744Z,1.81
2019-01-21T03:04:25.728Z,1.7
2019-01-21T03:05:25.709Z,1.79
2019-01-21T03:06:25.690Z,1.73
2019-01-21T03:07:25.690Z,1.72
2019-01-21T03:08:25.655Z,1.79
2019-01-21T03:09:25.646Z,1.81
2019-01-21T03:10:25.814Z,1.81
2019-01-21T03:11:25.606Z,1.77
2019-01-21T03:12:25.592Z,1.83
2019-01-21T03:13:25.582Z,1.76
2019-01-21T03:14:25.564Z,1.8
2019-01-21T03:15:25.548Z,1.86
2019-01-21T03:16:25.531Z,1.79
2019-01-21T03:17:25.510Z,1.76
2019-01-21T03:18:25.492Z,1.79
2019-01-21T03:19:26.063Z,1.69
2019-01-21T03:20:25.454Z,1.7
2019-01-21T03:21:25.436Z,1.77
2019-01-21T03:22:25.433Z,1.76
2019-01-21T03:23:25.408Z,1.76
2019-01-21T03:24:25.398Z,1.73
2019-01-21T03:25:25.376Z,1.76
2019-01-21T03:26:25.369Z,1.86
2019-01-21T03:27:25.438Z,1.7
2019-01-21T03:28:25.333Z,1.81
2019-01-21T03:29:25.317Z,1.7
2019-01-21T03:30:25.317Z,1.76
2019-01-21T03:31:25.278Z,1.7
2019-01-21T03:32:25.528Z,1.73
2019-01-21T03:33:26.825Z,1.72
2019-01-21T03:34:25.237Z,1.79
2019-01-21T03:35:25.265Z,1.72
2019-01-21T03:36:25.781Z,1.8
2019-01-21T03:37:25.185Z,1.72
2019-01-21T03:38:25.156Z,1.76
2019-01-21T03:39:25.147Z,1.8
2019-01-21T03:40:25.126Z,1.8
2019-01-21T03:41:25.150Z,1.79
2019-01-21T03:42:25.093Z,1.79
2019-01-21T03:43:25.083Z,1.76
2019-01-21T03:44:25.282Z,1.69
2019-01-21T03:45:25.046Z,1.72
2019-01-21T03:46:25.030Z,1.69
2019-01-21T03:47:25.048Z,1.69
2019-01-21T03:48:25.001Z,1.69
2019-01-21T03:49:24.998Z,1.7
2019-01-21T03:50:24.955Z,1.77
2019-01-21T03:51:24.938Z,1.76
2019-01-21T03:52:24.927Z,1.72
2019-01-21T03:53:25.249Z,1.72
2019-01-21T03:54:24.884Z,1.81
2019-01-21T03:55:24.894Z,1.73
2019-01-21T03:56:24.870Z,1.76
2019-01-21T03:57:24.846Z,1.77
2019-01-21T03:58:24.828Z,1.83
2019-01-21T03:59:24.801Z,1.8
2019-01-21T04:00:24.791Z,1.73
2019-01-21T04:01:25.099Z,1.73
2019-01-21T04:02:24.761Z,1.81
2019-01-21T04:03:24.745Z,1.81
2019-01-21T04:04:24.719Z,1.8
2019-01-21T04:05:24.703Z,1.8
2019-01-21T04:06:24.687Z,1.8
2019-01-21T04:07:24.663Z,1.77
2019-01-21T04:08:24.659Z,1.79
2019-01-21T04:09:24.635Z,1.8
2019-01-21T04:10:24.981Z,1.81
2019-01-21T04:11:24.595Z,1.81
2019-01-21T04:12:24.589Z,1.6
2019-01-21T04:13:24.573Z,1.7
2019-01-21T04:14:24.551Z,1.68
2019-01-21T04:15:25.272Z,1.62
2019-01-21T04:16:24.540Z,1.62
2019-01-21T04:17:24.498Z,1.68
2019-01-21T04:18:29.313Z,1.68
2019-01-21T04:19:24.468Z,1.63
2019-01-21T04:20:24.446Z,1.65
2019-01-21T04:21:24.428Z,1.68
2019-01-21T04:22:24.433Z,1.62
2019-01-21T04:23:24.405Z,1.6
2019-01-21T04:24:24.378Z,1.6
2019-01-21T04:25:24.363Z,1.62
2019-01-21T04:26:24.351Z,1.62
2019-01-21T04:27:24.680Z,1.62
2019-01-21T04:28:24.308Z,1.62
2019-01-21T04:29:24.296Z,1.7
2019-01-21T04:30:24.281Z,1.77
2019-01-21T04:31:26.213Z,1.68
2019-01-21T04:32:24.314Z,1.69
2019-01-21T04:33:24.239Z,1.77
2019-01-21T04:34:24.221Z,1.76
2019-01-21T04:35:24.769Z,1.76
2019-01-21T04:36:24.197Z,1.77
2019-01-21T04:37:24.159Z,1.77
2019-01-21T04:38:24.141Z,1.7
2019-01-21T04:39:24.206Z,1.8
2019-01-21T04:40:24.161Z,1.8
2019-01-21T04:41:24.097Z,1.73
2019-01-21T04:42:24.081Z,1.81
2019-01-21T04:43:24.062Z,1.76
2019-01-21T04:44:24.459Z,1.8
2019-01-21T04:45:24.027Z,1.86
2019-01-21T04:46:24.057Z,1.81
2019-01-21T04:47:23.999Z,1.8
2019-01-21T04:48:23.975Z,1.7
2019-01-21T04:49:23.959Z,1.6
2019-01-21T04:50:23.953Z,1.54
2019-01-21T04:51:23.943Z,1.59
2019-01-21T04:52:24.440Z,1.47
2019-01-21T04:53:23.900Z,1.37
2019-01-21T04:54:23.889Z,1.48
2019-01-21T04:55:23.855Z,1.48
2019-01-21T04:56:23.844Z,1.5
2019-01-21T04:57:23.824Z,1.5
2019-01-21T04:58:23.811Z,1.47
2019-01-21T04:59:23.790Z,1.55
2019-01-21T05:00:23.975Z,1.47
2019-01-21T05:01:24.118Z,1.45
2019-01-21T05:02:23.735Z,1.44
2019-01-21T05:03:23.727Z,1.52
2019-01-21T05:04:23.709Z,1.52
2019-01-21T05:05:23.692Z,1.5
2019-01-21T05:06:23.671Z,1.48
2019-01-21T05:07:23.663Z,1.52
2019-01-21T05:08:23.637Z,1.47
2019-01-21T05:09:25.545Z,1.55
2019-01-21T05:10:23.616Z,1.47
2019-01-21T05:11:23.587Z,1.51
2019-01-21T05:12:23.643Z,1.52
2019-01-21T05:13:23.599Z,1.52
2019-01-21T05:14:23.535Z,1.55
2019-01-21T05:15:23.536Z,1.51
2019-01-21T05:16:23.509Z,1.48
2019-01-21T05:17:24.172Z,1.48
2019-01-21T05:18:23.480Z,1.52
2019-01-21T05:19:23.454Z,1.42
2019-01-21T05:20:23.437Z,1.44
2019-01-21T05:21:23.425Z,1.4
2019-01-21T05:22:23.401Z,1.34
2019-01-21T05:23:23.377Z,1.42
2019-01-21T05:24:23.424Z,1.3
2019-01-21T05:25:23.455Z,1.36
2019-01-21T05:26:23.325Z,1.32
2019-01-21T05:27:23.308Z,1.29
2019-01-21T05:28:23.297Z,1.36
2019-01-21T05:29:23.277Z,1.4
2019-01-21T05:30:23.263Z,1.37
2019-01-21T05:31:23.242Z,1.33
2019-01-21T05:32:23.224Z,1.33
2019-01-21T05:33:23.208Z,1.32
2019-01-21T05:34:23.481Z,1.32
2019-01-21T05:35:23.169Z,1.32
2019-01-21T05:36:23.427Z,1.32
2019-01-21T05:37:23.160Z,1.23
2019-01-21T05:38:23.108Z,1.3
2019-01-21T05:39:23.093Z,1.22
2019-01-21T05:40:23.082Z,1.26
2019-01-21T05:41:23.061Z,1.2
2019-01-21T05:42:23.059Z,1.36
2019-01-21T05:43:23.089Z,1.24
2019-01-21T05:44:23.024Z,1.29
2019-01-21T05:45:22.999Z,1.32
2019-01-21T05:46:22.977Z,1.41
2019-01-21T05:47:23.264Z,1.27
2019-01-21T05:48:22.941Z,1.32
2019-01-21T05:49:22.929Z,1.37
2019-01-21T05:50:22.917Z,1.37
2019-01-21T05:51:22.922Z,1.32
2019-01-21T05:52:22.868Z,1.3
2019-01-21T05:53:22.853Z,1.29
2019-01-21T05:54:22.837Z,1.32
2019-01-21T05:55:22.822Z,1.15
2019-01-21T05:56:22.802Z,1.16
2019-01-21T05:57:22.819Z,1.16
2019-01-21T05:58:22.771Z,1.18
2019-01-21T05:59:22.751Z,1.15
2019-01-21T06:00:22.730Z,1.12
2019-01-21T06:01:22.715Z,1.2
2019-01-21T06:02:22.702Z,1.15
2019-01-21T06:03:22.682Z,1.14
2019-01-21T06:04:22.662Z,1.15
2019-01-21T06:05:22.642Z,1.15
2019-01-21T06:06:22.627Z,1.11
2019-01-21T06:07:22.610Z,1.05
2019-01-21T06:08:22.596Z,1
2019-01-21T06:09:22.581Z,1.02
2019-01-21T06:10:22.564Z,0.97
2019-01-21T06:11:22.542Z,0.9
2019-01-21T06:12:22.522Z,0.91
2019-01-21T06:13:22.509Z,0.94
2019-01-21T06:14:22.492Z,0.94
2019-01-21T06:15:22.469Z,1.05
2019-01-21T06:16:22.456Z,1
2019-01-21T06:17:22.444Z,0.97
2019-01-21T06:18:22.430Z,0.96
2019-01-21T06:19:22.405Z,0.97
2019-01-21T06:20:22.434Z,0.98
2019-01-21T06:21:22.383Z,1.09
2019-01-21T06:22:22.358Z,1.04
2019-01-21T06:23:22.346Z,0.96
2019-01-21T06:24:22.322Z,0.98
2019-01-21T06:25:22.336Z,1.2
2019-01-21T06:26:22.280Z,1.09
2019-01-21T06:27:22.271Z,1.18
2019-01-21T06:28:22.265Z,1.15
2019-01-21T06:29:22.230Z,1.15
2019-01-21T06:30:22.216Z,1.09
2019-01-21T06:31:22.195Z,1.14
2019-01-21T06:32:22.175Z,1.15
2019-01-21T06:33:22.160Z,1.14
2019-01-21T06:34:22.143Z,1.09
2019-01-21T06:35:22.126Z,1.05
2019-01-21T06:36:22.113Z,1.09
2019-01-21T06:37:22.095Z,1.14
2019-01-21T06:38:22.074Z,1.11
2019-01-21T06:39:21.822Z,1.14
2019-01-21T06:40:22.036Z,1.2
2019-01-21T06:41:22.028Z,1.14
2019-01-21T06:42:22.003Z,1.09
2019-01-21T06:43:21.985Z,1.18
2019-01-21T06:44:21.967Z,1.14
2019-01-21T06:45:21.960Z,1.12
2019-01-21T06:46:21.932Z,1.15
2019-01-21T06:47:21.915Z,1.02
2019-01-21T06:48:21.902Z,1.02
2019-01-21T06:49:21.886Z,1.06
2019-01-21T06:50:21.865Z,1.12
2019-01-21T06:51:21.850Z,1.09
2019-01-21T06:52:21.833Z,1
2019-01-21T06:53:21.817Z,1.02
2019-01-21T06:54:21.795Z,1
2019-01-21T06:55:21.780Z,1.04
2019-01-21T06:56:21.763Z,1.08
2019-01-21T06:57:21.749Z,0.98
2019-01-21T06:58:21.729Z,1.04
2019-01-21T06:59:21.710Z,1.15
2019-01-21T07:00:21.694Z,1.11
2019-01-21T07:01:21.671Z,1.11
2019-01-21T07:02:21.658Z,1.24
2019-01-21T07:03:21.643Z,1.27
2019-01-21T07:04:21.628Z,1.33
2019-01-21T07:05:21.645Z,1.29
2019-01-21T07:06:21.585Z,1.27
2019-01-21T07:07:21.576Z,1.33
2019-01-21T07:08:21.555Z,1.41
2019-01-21T07:09:21.535Z,1.33
2019-01-21T07:10:21.519Z,1.33
2019-01-21T07:11:21.502Z,1.29
2019-01-21T07:12:21.483Z,1.37
2019-01-21T07:13:21.468Z,1.33
2019-01-21T07:14:21.449Z,1.34
2019-01-21T07:15:21.432Z,1.34
2019-01-21T07:16:21.415Z,1.37
2019-01-21T07:17:21.399Z,1.44
2019-01-21T07:18:25.910Z,1.4
2019-01-21T07:19:21.365Z,1.4
2019-01-21T07:20:21.346Z,1.29
2019-01-21T07:21:21.329Z,1.42
2019-01-21T07:22:21.313Z,1.3
2019-01-21T07:23:21.293Z,1.36
2019-01-21T07:24:21.276Z,1.42
2019-01-21T07:25:21.261Z,1.32
2019-01-21T07:26:21.242Z,1.32
2019-01-21T07:27:21.235Z,1.32
2019-01-21T07:28:21.213Z,1.3
2019-01-21T07:29:21.196Z,1.16
2019-01-21T07:30:21.189Z,1.14
2019-01-21T07:31:20.914Z,1.14
2019-01-21T07:32:21.142Z,1.16
2019-01-21T07:33:22.366Z,1.16
2019-01-21T07:34:21.144Z,1.05
2019-01-21T07:35:21.087Z,1.05
2019-01-21T07:36:20.829Z,1.02
2019-01-21T07:37:21.062Z,0.97
2019-01-21T07:38:21.040Z,0.96
2019-01-21T07:39:21.018Z,0.94
2019-01-21T07:40:20.762Z,0.93
2019-01-21T07:41:20.989Z,0.86
2019-01-21T07:42:20.966Z,0.9
2019-01-21T07:43:20.953Z,0.9
2019-01-21T07:44:20.933Z,0.88
2019-01-21T07:45:20.917Z,0.94
2019-01-21T07:46:20.899Z,0.9
2019-01-21T07:47:20.880Z,0.96
2019-01-21T07:48:20.863Z,1.02
2019-01-21T07:49:22.240Z,1.06
2019-01-21T07:50:20.835Z,1
2019-01-21T07:51:20.814Z,1.09
2019-01-21T07:52:20.793Z,1.11
2019-01-21T07:53:20.776Z,1.09
2019-01-21T07:54:20.759Z,1.06
2019-01-21T07:55:20.741Z,1.05
2019-01-21T07:56:20.724Z,1.05
2019-01-21T07:57:20.707Z,1.08
2019-01-21T07:58:20.690Z,1.08
2019-01-21T07:59:20.674Z,1.12
2019-01-21T08:00:20.656Z,1.11
2019-01-21T08:01:20.642Z,1.02
2019-01-21T08:02:20.622Z,1.05
2019-01-21T08:03:20.603Z,1.05
2019-01-21T08:04:20.586Z,1.14
2019-01-21T08:05:20.568Z,1.16
2019-01-21T08:06:20.555Z,1.12
2019-01-21T08:07:20.539Z,1.15
2019-01-21T08:08:20.532Z,1.14
2019-01-21T08:09:20.505Z,1.05
2019-01-21T08:10:20.484Z,1.09
2019-01-21T08:11:20.225Z,1.11
2019-01-21T08:12:20.449Z,1.12
2019-01-21T08:13:20.435Z,1.29
2019-01-21T08:14:20.415Z,1.34
2019-01-21T08:15:20.400Z,1.41
2019-01-21T08:16:20.379Z,1.41
2019-01-21T08:17:20.363Z,1.45
2019-01-21T08:18:20.351Z,1.42
2019-01-21T08:19:26.743Z,1.54
2019-01-21T08:20:20.315Z,1.42
2019-01-21T08:21:20.296Z,1.48
2019-01-21T08:22:20.275Z,1.59
2019-01-21T08:23:20.261Z,1.6
2019-01-21T08:24:20.248Z,1.6
2019-01-21T08:25:20.227Z,1.6
2019-01-21T08:26:20.210Z,1.6
2019-01-21T08:27:20.194Z,1.54
2019-01-21T08:28:20.178Z,1.48
2019-01-21T08:29:20.162Z,1.41
2019-01-21T08:30:20.140Z,1.36
2019-01-21T08:31:20.128Z,1.45
2019-01-21T08:32:20.107Z,1.47
2019-01-21T08:33:20.092Z,1.44
2019-01-21T08:34:20.077Z,1.44
2019-01-21T08:35:20.058Z,1.45
2019-01-21T08:36:20.045Z,1.51
2019-01-21T08:37:20.023Z,1.52
2019-01-21T08:38:20.005Z,1.58
2019-01-21T08:39:19.990Z,1.52
2019-01-21T08:40:19.974Z,1.62
2019-01-21T08:41:19.957Z,1.72
2019-01-21T08:42:19.937Z,1.66
2019-01-21T08:43:19.924Z,1.77
2019-01-21T08:44:19.907Z,1.79
2019-01-21T08:45:19.890Z,1.73
2019-01-21T08:46:23.863Z,1.77
2019-01-21T08:47:19.855Z,1.79
2019-01-21T08:48:19.841Z,1.8
2019-01-21T08:49:19.819Z,1.87
2019-01-21T08:50:19.807Z,1.79
2019-01-21T08:51:19.793Z,1.86
2019-01-21T08:52:19.782Z,1.86
2019-01-21T08:53:19.760Z,1.86
2019-01-21T08:54:19.741Z,1.91
2019-01-21T08:55:19.723Z,1.91
2019-01-21T08:56:19.702Z,1.98
2019-01-21T08:57:19.690Z,2
2019-01-21T08:58:19.672Z,2.07
2019-01-21T08:59:19.653Z,2.07
2019-01-21T09:00:19.643Z,2.05
2019-01-21T09:01:19.622Z,2.12
2019-01-21T09:02:19.607Z,2.18
2019-01-21T09:03:19.591Z,2.23
2019-01-21T09:04:19.570Z,2.28
2019-01-21T09:05:19.561Z,2.28
2019-01-21T09:06:19.544Z,2.31
2019-01-21T09:07:19.521Z,2.39
2019-01-21T09:08:19.513Z,2.35
2019-01-21T09:09:19.490Z,2.36
2019-01-21T09:10:19.474Z,2.53
2019-01-21T09:11:19.459Z,2.45
2019-01-21T09:12:19.444Z,2.56
2019-01-21T09:13:19.425Z,2.53
2019-01-21T09:14:19.407Z,2.61
2019-01-21T09:15:19.153Z,2.61
2019-01-21T09:16:19.374Z,2.57
2019-01-21T09:17:19.361Z,2.56
2019-01-21T09:18:19.344Z,2.71
2019-01-21T09:19:19.326Z,2.74
2019-01-21T09:20:19.309Z,2.67
2019-01-21T09:21:19.292Z,2.64
2019-01-21T09:22:19.284Z,2.59
2019-01-21T09:23:19.258Z,2.53
2019-01-21T09:24:20.525Z,2.59
2019-01-21T09:25:19.235Z,2.48
2019-01-21T09:26:19.210Z,2.39
2019-01-21T09:27:19.199Z,2.34
2019-01-21T09:28:19.182Z,2.2
2019-01-21T09:29:19.164Z,2.3
2019-01-21T09:30:19.154Z,2.2
2019-01-21T09:31:19.135Z,2.09
2019-01-21T09:32:19.123Z,2.14
2019-01-21T09:33:19.101Z,2.2
2019-01-21T09:34:19.091Z,2.31
2019-01-21T09:35:19.074Z,2.39
2019-01-21T09:36:19.054Z,2.39
2019-01-21T09:37:19.039Z,2.52
2019-01-21T09:38:19.026Z,2.42
2019-01-21T09:39:19.003Z,2.6
2019-01-21T09:40:18.991Z,2.64
2019-01-21T09:41:18.973Z,2.67
2019-01-21T09:42:18.957Z,2.69
2019-01-21T09:43:18.979Z,2.84
2019-01-21T09:44:18.935Z,2.89
2019-01-21T09:45:18.909Z,2.87
2019-01-21T09:46:18.899Z,2.96
2019-01-21T09:47:18.886Z,2.97
2019-01-21T09:48:18.859Z,3.03
2019-01-21T09:49:18.868Z,3.1
2019-01-21T09:50:18.833Z,3.1
2019-01-21T09:51:18.814Z,3.11
2019-01-21T09:52:18.802Z,3.13
2019-01-21T09:53:18.541Z,3.1
2019-01-21T09:54:18.780Z,3.05
2019-01-21T09:55:18.757Z,3.03
2019-01-21T09:56:18.741Z,3.1
2019-01-21T09:57:18.721Z,2.99
2019-01-21T09:58:18.709Z,3.03
2019-01-21T09:59:18.694Z,3.05
2019-01-21T10:00:18.680Z,3.05
2019-01-21T10:01:18.672Z,2.93
2019-01-21T10:02:18.642Z,3.02
2019-01-21T10:03:18.626Z,3.05
2019-01-21T10:04:18.612Z,3.17
2019-01-21T10:05:18.600Z,3.11
2019-01-21T10:06:18.589Z,3.1
2019-01-21T10:07:18.571Z,3.18
2019-01-21T10:08:18.557Z,3.23
2019-01-21T10:09:18.535Z,3.21
2019-01-21T10:10:18.518Z,3.32
2019-01-21T10:11:18.503Z,3.26
2019-01-21T10:12:18.497Z,3.33
2019-01-21T10:13:18.474Z,3.32
2019-01-21T10:14:18.459Z,3.32
2019-01-21T10:15:18.441Z,3.31
2019-01-21T10:16:18.429Z,3.23
2019-01-21T10:17:18.409Z,3.28
2019-01-21T10:18:18.399Z,3.26
2019-01-21T10:19:18.382Z,3.39
2019-01-21T10:20:18.366Z,3.21
2019-01-21T10:21:18.356Z,3.26
2019-01-21T10:22:18.333Z,3.31
2019-01-21T10:23:19.499Z,3.31
2019-01-21T10:24:18.308Z,3.28
2019-01-21T10:25:18.296Z,3.32
2019-01-21T10:26:18.274Z,3.32
2019-01-21T10:27:18.269Z,3.26
2019-01-21T10:28:18.243Z,3.26
2019-01-21T10:29:18.235Z,3.17
2019-01-21T10:30:18.218Z,3.23
2019-01-21T10:31:18.199Z,3.21
2019-01-21T10:32:18.181Z,3.26
2019-01-21T10:33:18.166Z,3.24
2019-01-21T10:34:18.151Z,3.24
2019-01-21T10:35:18.152Z,3.26
2019-01-21T10:36:18.118Z,3.26
2019-01-21T10:37:18.104Z,3.26
2019-01-21T10:38:18.088Z,3.24
2019-01-21T10:39:18.078Z,3.32
2019-01-21T10:40:19.425Z,3.31
2019-01-21T10:41:18.042Z,3.36
2019-01-21T10:42:18.038Z,3.43
2019-01-21T10:43:18.689Z,3.32
2019-01-21T10:44:17.996Z,3.32
2019-01-21T10:45:17.983Z,3.48
2019-01-21T10:46:17.722Z,3.43
2019-01-21T10:47:17.954Z,3.33
2019-01-21T10:48:17.936Z,3.31
2019-01-21T10:49:17.947Z,3.18
2019-01-21T10:50:17.910Z,3.1
2019-01-21T10:51:17.891Z,3.05
2019-01-21T10:52:17.881Z,3
2019-01-21T10:53:17.862Z,2.93
2019-01-21T10:54:17.845Z,2.99
2019-01-21T10:55:17.827Z,2.95
2019-01-21T10:56:18.822Z,2.97
2019-01-21T10:57:17.799Z,2.93
2019-01-21T10:58:17.795Z,2.93
2019-01-21T10:59:17.777Z,2.93
2019-01-21T11:00:17.757Z,2.96
2019-01-21T11:01:17.739Z,2.95
2019-01-21T11:02:17.725Z,2.9
2019-01-21T11:03:17.710Z,2.89
2019-01-21T11:04:17.696Z,2.93
2019-01-21T11:05:17.678Z,3.03
2019-01-21T11:06:17.662Z,3.08
2019-01-21T11:07:17.644Z,3.03
2019-01-21T11:08:17.633Z,3.05
2019-01-21T11:09:17.619Z,3.13
2019-01-21T11:10:17.602Z,3.03
2019-01-21T11:11:17.588Z,3.08
2019-01-21T11:12:17.330Z,3.08
2019-01-21T11:13:17.557Z,3.06
2019-01-21T11:14:17.543Z,3.11
2019-01-21T11:15:17.528Z,3.08
2019-01-21T11:16:17.508Z,3.13
2019-01-21T11:17:17.494Z,2.97
2019-01-21T11:18:17.480Z,2.97
2019-01-21T11:19:17.463Z,2.95
2019-01-21T11:20:17.447Z,2.89
2019-01-21T11:21:17.433Z,2.89
2019-01-21T11:22:17.418Z,2.99
2019-01-21T11:23:17.404Z,3.03
2019-01-21T11:24:18.808Z,3.06
2019-01-21T11:25:17.372Z,3.26
2019-01-21T11:26:17.811Z,3.29
2019-01-21T11:27:17.341Z,3.39
2019-01-21T11:28:17.327Z,3.36
2019-01-21T11:29:17.914Z,3.24
2019-01-21T11:30:17.297Z,3.26
2019-01-21T11:31:17.277Z,3.32
2019-01-21T11:32:17.264Z,3.21
2019-01-21T11:33:17.251Z,3.17
2019-01-21T11:34:17.240Z,3.08
2019-01-21T11:35:17.222Z,3.1
2019-01-21T11:36:17.203Z,2.97
2019-01-21T11:37:17.189Z,2.95
2019-01-21T11:38:18.569Z,2.81
2019-01-21T11:39:17.161Z,2.79
2019-01-21T11:40:17.147Z,2.69
2019-01-21T11:41:17.129Z,2.74
2019-01-21T11:42:17.112Z,2.66
2019-01-21T11:43:17.100Z,2.63
2019-01-21T11:44:17.086Z,2.61
2019-01-21T11:45:21.080Z,2.69
2019-01-21T11:46:17.059Z,2.67
2019-01-21T11:47:17.036Z,2.81
2019-01-21T11:48:17.021Z,2.92
2019-01-21T11:49:17.010Z,3.03
2019-01-21T11:50:16.995Z,3.08
2019-01-21T11:51:16.979Z,3.29
2019-01-21T11:52:20.074Z,3.26
2019-01-21T11:53:16.944Z,3.31
2019-01-21T11:54:16.927Z,3.39
2019-01-21T11:55:16.916Z,3.45
2019-01-21T11:56:16.898Z,3.58
2019-01-21T11:57:16.882Z,3.52
2019-01-21T11:58:16.868Z,3.5
2019-01-21T11:59:16.856Z,3.4
2019-01-21T12:00:16.597Z,3.24
2019-01-21T12:01:16.827Z,3.32
2019-01-21T12:02:16.807Z,3.2
2019-01-21T12:03:23.259Z,3.26
2019-01-21T12:04:16.780Z,3.2
2019-01-21T12:05:16.763Z,3.18
2019-01-21T12:06:16.753Z,3.17
2019-01-21T12:07:16.737Z,3.2
2019-01-21T12:08:16.718Z,3.23
2019-01-21T12:09:16.705Z,3.23
2019-01-21T12:10:16.691Z,3.42
2019-01-21T12:11:16.674Z,3.32
2019-01-21T12:12:16.673Z,3.33
2019-01-21T12:13:16.645Z,3.36
2019-01-21T12:14:16.628Z,3.5
2019-01-21T12:15:16.617Z,3.42
2019-01-21T12:16:16.599Z,3.42
2019-01-21T12:17:16.582Z,3.43
2019-01-21T12:18:19.603Z,3.58
2019-01-21T12:19:16.555Z,3.5
2019-01-21T12:20:21.858Z,3.68
2019-01-21T12:21:16.525Z,3.66
2019-01-21T12:22:16.512Z,3.79
2019-01-21T12:23:16.494Z,3.79
2019-01-21T12:24:16.479Z,3.72
2019-01-21T12:25:16.468Z,3.83
2019-01-21T12:26:16.473Z,3.96
2019-01-21T12:27:16.434Z,3.87
2019-01-21T12:28:16.430Z,3.91
2019-01-21T12:29:16.414Z,3.87
2019-01-21T12:30:16.390Z,3.94
2019-01-21T12:31:16.384Z,3.97
2019-01-21T12:32:16.360Z,4.04
2019-01-21T12:33:16.346Z,4.11
2019-01-21T12:34:16.331Z,4.15
2019-01-21T12:35:16.354Z,4.23
2019-01-21T12:36:16.305Z,4.36
2019-01-21T12:37:16.290Z,4.37
2019-01-21T12:38:16.273Z,4.45
2019-01-21T12:39:16.262Z,4.5
2019-01-21T12:40:16.248Z,4.5
2019-01-21T12:41:23.915Z,4.5
2019-01-21T12:42:16.214Z,4.5
2019-01-21T12:43:16.200Z,4.52
2019-01-21T12:44:16.188Z,4.54
2019-01-21T12:45:16.173Z,4.5
2019-01-21T12:46:16.167Z,4.41
2019-01-21T12:47:16.142Z,4.34
2019-01-21T12:48:16.132Z,4.4
2019-01-21T12:49:16.115Z,4.29
2019-01-21T12:50:16.104Z,4.27
2019-01-21T12:51:16.090Z,4.32
2019-01-21T12:52:16.075Z,4.41
2019-01-21T12:53:16.058Z,4.34
2019-01-21T12:54:15.801Z,4.45
2019-01-21T12:55:16.027Z,4.48
2019-01-21T12:56:16.013Z,4.37
2019-01-21T12:57:16.000Z,4.48
2019-01-21T12:58:15.984Z,4.51
2019-01-21T12:59:20.749Z,4.48
2019-01-21T13:00:15.717Z,4.47
2019-01-21T13:01:15.939Z,4.51
2019-01-21T13:02:15.929Z,4.52
2019-01-21T13:03:15.914Z,4.5
2019-01-21T13:04:15.901Z,4.34
2019-01-21T13:05:15.888Z,4.36
2019-01-21T13:06:15.905Z,4.3
2019-01-21T13:07:15.856Z,4.37
2019-01-21T13:08:15.839Z,4.22
2019-01-21T13:09:15.824Z,4.15
2019-01-21T13:10:15.812Z,4.14
2019-01-21T13:11:15.798Z,4.11
2019-01-21T13:12:15.785Z,4
2019-01-21T13:13:15.769Z,3.96
2019-01-21T13:14:15.752Z,3.96
2019-01-21T13:15:15.739Z,3.8
2019-01-21T13:16:15.725Z,3.7
2019-01-21T13:17:15.708Z,3.58
2019-01-21T13:18:15.697Z,3.52
2019-01-21T13:19:15.678Z,3.39
2019-01-21T13:20:15.664Z,3.35
2019-01-21T13:21:15.648Z,3.33
2019-01-21T13:22:19.707Z,3.21
2019-01-21T13:23:15.622Z,3.02